Time;durP1;ratioP1;P1;durP2;ratioP2;P2;SDS_P1;SDS_P2;PMS_P1;PMS_P2;Temp;Humidity;BMP_temperature;BMP_pressure;BME280_temperature;BME280_humidity;BME280_pressure;Samples;Min_cycle;Max_cycle;Signal;HPM_P1;HPM_P2
2023/01/01 00:01:39;;;;;;;;;9.00;7.80;;;;;16.34;54.52;99317.41;5054323;28;9463;-58
2023/01/01 00:04:07;;;;;;;;;6.00;6.00;;;;;16.32;54.80;99297.94;5053457;28;8906;-59
2023/01/01 00:06:36;;;;;;;;;6.80;6.80;;;;;16.29;54.74;99317.06;5055031;28;9539;-60
2023/01/01 00:11:49;;;;;;;;;6.40;6.40;;;;;16.26;54.81;99322.81;5055347;28;8891;-60
2023/01/01 00:14:17;;;;;;;;;7.00;6.00;;;;;16.23;54.82;99324.00;5056069;28;8868;-60
2023/01/01 00:16:45;;;;;;;;;9.00;7.40;;;;;16.23;54.62;99326.66;5055666;28;8857;-59
2023/01/01 00:19:13;;;;;;;;;7.00;6.00;;;;;16.23;55.06;99324.00;5055241;28;8856;-58
2023/01/01 00:21:41;;;;;;;;;10.80;9.60;;;;;16.23;54.99;99325.00;5055278;28;8841;-58
2023/01/01 00:24:09;;;;;;;;;6.00;5.20;;;;;16.22;54.73;99329.53;5055398;28;8847;-60
2023/01/01 00:26:37;;;;;;;;;7.00;6.80;;;;;16.23;54.81;99340.09;5054462;28;8864;-60
2023/01/01 00:29:04;;;;;;;;;3.00;3.00;;;;;16.23;54.93;99356.22;5055397;28;8829;-60
2023/01/01 00:31:33;;;;;;;;;8.20;7.40;;;;;16.25;54.72;99337.25;5055213;28;8859;-60
2023/01/01 00:34:00;;;;;;;;;9.00;9.00;;;;;16.25;54.71;99327.31;5053812;28;8884;-60
2023/01/01 00:36:28;;;;;;;;;7.00;4.80;;;;;16.28;54.03;99331.53;5053652;28;8899;-60
2023/01/01 00:38:57;;;;;;;;;7.40;6.20;;;;;16.30;53.99;99329.50;5053340;28;8860;-60
2023/01/01 00:41:24;;;;;;;;;9.00;7.00;;;;;16.31;54.03;99339.22;5052381;28;8829;-60
2023/01/01 00:43:53;;;;;;;;;9.00;8.40;;;;;16.27;54.19;99336.03;5052338;28;9624;-60
2023/01/01 00:46:20;;;;;;;;;10.60;9.40;;;;;16.25;54.00;99321.13;5053173;28;8895;-60
2023/01/01 00:48:49;;;;;;;;;11.60;10.00;;;;;16.22;54.81;99331.38;5053111;28;8837;-60
2023/01/01 00:51:16;;;;;;;;;7.00;7.00;;;;;16.20;54.50;99320.81;5053694;28;8845;-60
2023/01/01 00:53:44;;;;;;;;;12.40;12.00;;;;;16.17;54.69;99321.97;5037540;28;8832;-59
2023/01/01 00:56:12;;;;;;;;;11.50;11.00;;;;;16.14;54.15;99309.91;5034493;28;8961;-60
2023/01/01 00:58:40;;;;;;;;;10.25;9.00;;;;;16.15;54.08;99330.41;5034595;28;8824;-59
2023/01/01 01:01:09;;;;;;;;;12.50;11.00;;;;;16.15;54.20;99304.34;5035630;28;8828;-60
2023/01/01 01:03:37;;;;;;;;;16.50;13.00;;;;;16.14;53.75;99328.72;5035167;28;8894;-59
2023/01/01 01:06:04;;;;;;;;;18.25;17.00;;;;;16.11;54.10;99321.00;5035320;28;8845;-59
2023/01/01 01:08:32;;;;;;;;;13.75;12.00;;;;;16.12;53.28;99325.34;5035204;28;8884;-59
2023/01/01 01:11:00;;;;;;;;;16.50;15.75;;;;;16.07;53.90;99344.66;5035219;28;8825;-59
2023/01/01 01:13:28;;;;;;;;;15.50;15.00;;;;;15.99;53.32;99323.19;5035143;28;8886;-60
2023/01/01 01:15:56;;;;;;;;;14.00;12.00;;;;;15.95;53.58;99329.09;5035325;28;8855;-59
2023/01/01 01:18:24;;;;;;;;;6.00;6.00;;;;;15.90;54.00;99320.69;5034373;28;8991;-58
2023/01/01 01:20:53;;;;;;;;;15.25;14.50;;;;;15.89;53.72;99332.44;5033941;28;8902;-59
2023/01/01 01:23:21;;;;;;;;;12.50;12.50;;;;;15.88;53.74;99338.84;5034343;28;9522;-60
2023/01/01 01:25:48;;;;;;;;;18.50;14.00;;;;;15.89;53.33;99341.38;5033434;28;8870;-60
2023/01/01 01:28:16;;;;;;;;;9.75;9.25;;;;;15.87;53.82;99329.97;5033886;28;8832;-61
2023/01/01 01:30:44;;;;;;;;;11.50;10.25;;;;;15.82;53.17;99351.09;5033764;28;8844;-60
2023/01/01 01:33:12;;;;;;;;;14.00;11.00;;;;;15.82;53.37;99351.09;5033384;28;8820;-59
2023/01/01 01:35:40;;;;;;;;;11.00;10.00;;;;;15.83;53.48;99344.72;5033358;28;8848;-60
2023/01/01 01:38:07;;;;;;;;;7.00;7.00;;;;;15.85;53.07;99341.88;5033159;28;8833;-61
2023/01/01 01:40:35;;;;;;;;;9.00;9.00;;;;;15.83;52.71;99352.78;5032133;28;8890;-60
2023/01/01 01:43:03;;;;;;;;;7.25;6.00;;;;;15.81;52.94;99351.25;5031875;28;8848;-60
2023/01/01 01:45:31;;;;;;;;;7.00;4.50;;;;;15.78;53.36;99362.34;5032692;28;8922;-60
2023/01/01 01:48:00;;;;;;;;;9.25;9.00;;;;;15.76;52.55;99369.75;5033913;28;9534;-60
2023/01/01 01:50:28;;;;;;;;;6.75;6.00;;;;;15.78;53.08;99359.66;5034401;28;8844;-61
2023/01/01 01:52:55;;;;;;;;;6.50;6.00;;;;;15.77;52.82;99358.81;5033293;28;8853;-60
2023/01/01 01:55:23;;;;;;;;;6.75;6.00;;;;;15.82;52.41;99379.78;5034052;28;8863;-60
2023/01/01 01:57:51;;;;;;;;;6.25;6.25;;;;;15.83;52.44;99368.88;5034432;28;8841;-60
2023/01/01 02:00:19;;;;;;;;;3.20;3.20;;;;;15.83;51.87;99381.47;5034696;28;9484;-60
2023/01/01 02:02:47;;;;;;;;;4.00;4.00;;;;;15.83;52.38;99368.03;5034392;28;8859;-60
2023/01/01 02:05:15;;;;;;;;;3.80;3.80;;;;;15.81;52.44;99370.91;5034719;28;8832;-59
2023/01/01 02:07:42;;;;;;;;;9.50;9.00;;;;;15.78;52.01;99378.47;5034673;28;8833;-60
2023/01/01 02:10:10;;;;;;;;;9.80;9.00;;;;;15.74;52.21;99386.00;5034378;28;8844;-60
2023/01/01 02:12:38;;;;;;;;;6.25;6.00;;;;;15.70;52.34;99386.53;5033913;28;8878;-60
2023/01/01 02:15:06;;;;;;;;;6.40;4.80;;;;;15.65;52.30;99370.06;5034499;28;9502;-60
2023/01/01 02:17:33;;;;;;;;;3.20;3.00;;;;;15.61;51.87;99388.34;5038007;28;8868;-60
2023/01/01 02:20:05;;;;;;;;;1.40;1.00;;;;;15.58;52.04;99388.69;5038427;28;9483;-60
2023/01/01 02:22:33;;;;;;;;;3.00;3.00;;;;;15.59;51.71;99378.78;5037938;28;9511;-60
2023/01/01 02:25:01;;;;;;;;;2.80;2.80;;;;;15.57;51.86;99394.22;5038008;28;8836;-60
2023/01/01 02:27:29;;;;;;;;;1.00;1.00;;;;;15.57;51.77;99391.53;5037945;28;8918;-60
2023/01/01 02:29:56;;;;;;;;;4.00;4.00;;;;;15.56;52.26;99368.41;5037829;28;8844;-59
2023/01/01 02:32:24;;;;;;;;;0.60;0.60;;;;;15.53;51.99;99380.31;5038073;28;9277;-60
2023/01/01 02:34:52;;;;;;;;;1.40;1.40;;;;;15.53;52.12;99384.81;5038062;28;8842;-61
2023/01/01 02:37:20;;;;;;;;;3.00;3.00;;;;;15.52;51.80;99385.81;5038536;28;8824;-60
2023/01/01 02:39:48;;;;;;;;;1.00;1.00;;;;;15.52;51.71;99369.72;5038203;28;8845;-58
2023/01/01 02:42:15;;;;;;;;;1.40;1.40;;;;;15.53;51.56;99374.06;5038121;28;8859;-60
2023/01/01 02:44:43;;;;;;;;;1.00;1.00;;;;;15.51;52.08;99386.84;5037435;28;8951;-59
2023/01/01 02:47:11;;;;;;;;;1.00;0.60;;;;;15.52;51.68;99396.56;5037008;28;9171;-60
2023/01/01 02:49:39;;;;;;;;;0.00;0.00;;;;;15.52;51.77;99372.41;5036341;28;8844;-60
2023/01/01 02:52:08;;;;;;;;;1.00;1.00;;;;;15.52;51.82;99380.47;5037441;28;8833;-60
2023/01/01 02:54:36;;;;;;;;;1.00;1.00;;;;;15.50;51.75;99363.69;5037801;28;8836;-61
2023/01/01 02:57:03;;;;;;;;;1.00;1.00;;;;;15.49;51.93;99380.81;5037146;28;8840;-60
2023/01/01 03:02:16;;;;;;;;;3.00;1.80;;;;;15.52;51.45;99377.78;5038250;28;8836;-61
2023/01/01 03:04:44;;;;;;;;;3.00;3.00;;;;;15.55;50.79;99385.50;5038243;28;8840;-61
2023/01/01 03:07:12;;;;;;;;;1.00;1.00;;;;;15.54;51.11;99379.28;5038111;28;8914;-60
2023/01/01 03:09:39;;;;;;;;;1.00;1.00;;;;;15.55;51.18;99372.91;5038039;28;8909;-60
2023/01/01 03:12:07;;;;;;;;;0.00;0.00;;;;;15.55;50.82;99372.91;5038213;28;8906;-60
2023/01/01 03:14:35;;;;;;;;;1.40;1.40;;;;;15.57;50.51;99380.81;5038070;28;8825;-61
2023/01/01 03:17:03;;;;;;;;;1.40;1.00;;;;;15.56;50.98;99371.06;5037802;28;9503;-61
2023/01/01 03:19:30;;;;;;;;;1.40;1.40;;;;;15.55;50.72;99382.81;5037679;28;8849;-60
2023/01/01 03:21:58;;;;;;;;;3.00;0.60;;;;;15.57;50.71;99392.41;5037442;28;8894;-58
2023/01/01 03:24:26;;;;;;;;;1.00;1.00;;;;;15.58;51.13;99380.66;5038019;28;8863;-60
2023/01/01 03:26:54;;;;;;;;;1.00;1.00;;;;;15.59;50.80;99397.56;5037822;28;8828;-60
2023/01/01 03:29:21;;;;;;;;;0.00;0.00;;;;;15.58;51.17;99406.63;5036554;28;9215;-60
2023/01/01 03:31:49;;;;;;;;;1.00;0.40;;;;;15.54;51.14;99406.13;5037044;28;8832;-60
2023/01/01 03:34:17;;;;;;;;;0.60;0.00;;;;;15.54;51.30;99386.53;5036584;28;8833;-61
2023/01/01 03:36:45;;;;;;;;;3.00;1.00;;;;;15.51;51.42;99405.63;5036746;28;8845;-60
2023/01/01 03:39:13;;;;;;;;;1.00;0.60;;;;;15.47;51.32;99406.97;5037209;28;8859;-60
2023/01/01 03:41:41;;;;;;;;;1.40;1.40;;;;;15.44;51.66;99386.66;5036527;28;8837;-60
2023/01/01 03:44:08;;;;;;;;;1.80;0.80;;;;;15.45;51.60;99403.59;5037055;28;8874;-60
2023/01/01 03:46:36;;;;;;;;;0.00;0.00;;;;;15.45;51.35;99406.28;5037252;28;8843;-60
2023/01/01 03:49:04;;;;;;;;;0.00;0.00;;;;;15.44;51.15;99391.19;5037651;28;8831;-60
2023/01/01 03:51:31;;;;;;;;;3.40;3.40;;;;;15.40;51.93;99401.41;5037535;28;9509;-60
2023/01/01 03:53:59;;;;;;;;;1.00;1.00;;;;;15.39;51.61;99397.06;5037162;28;8913;-59
2023/01/01 03:56:27;;;;;;;;;1.00;1.00;;;;;15.40;51.49;99404.09;5037180;28;8824;-59
2023/01/01 03:58:54;;;;;;;;;0.75;0.75;;;;;15.41;51.87;99400.41;5037015;28;9602;-60
2023/01/01 04:01:22;;;;;;;;;1.00;1.00;;;;;15.41;51.31;99404.94;5037021;28;8824;-60
2023/01/01 04:03:50;;;;;;;;;1.00;1.00;;;;;15.39;51.32;99412.34;5037062;28;8851;-60
2023/01/01 04:06:18;;;;;;;;;1.80;0.60;;;;;15.39;52.02;99426.56;5036826;28;8852;-60
2023/01/01 04:08:45;;;;;;;;;2.20;2.20;;;;;15.41;51.67;99410.31;5037180;28;8845;-60
2023/01/01 04:13:55;;;;;;;;;0.20;0.20;;;;;15.38;52.02;99414.16;5036155;28;8851;-60
2023/01/01 04:16:22;;;;;;;;;0.00;0.00;;;;;15.37;51.81;99419.69;5036723;28;8836;-59
2023/01/01 04:18:50;;;;;;;;;0.80;0.80;;;;;15.36;51.57;99407.28;5037103;28;8848;-60
2023/01/01 04:21:18;;;;;;;;;5.40;0.80;;;;;15.34;52.07;99426.25;5036910;28;8824;-59
2023/01/01 04:23:46;;;;;;;;;0.50;0.50;;;;;15.32;51.93;99432.78;5036816;28;8844;-59
2023/01/01 04:26:14;;;;;;;;;1.00;0.75;;;;;15.29;52.16;99433.91;5036675;28;8938;-59
2023/01/01 04:28:41;;;;;;;;;1.00;1.00;;;;;15.30;52.15;99434.72;5036207;28;8817;-60
2023/01/01 04:31:10;;;;;;;;;1.00;1.00;;;;;15.33;52.10;99447.88;5035808;28;8871;-60
2023/01/01 04:33:38;;;;;;;;;1.00;1.00;;;;;15.30;52.05;99453.50;5035888;28;8844;-60
2023/01/01 04:36:06;;;;;;;;;0.50;0.00;;;;;15.29;52.63;99465.25;5035613;28;8856;-59
2023/01/01 04:38:35;;;;;;;;;0.50;0.50;;;;;15.31;52.36;99477.53;5035319;28;8920;-59
2023/01/01 04:41:02;;;;;;;;;1.00;1.00;;;;;15.34;52.25;99454.91;5035649;28;8843;-60
2023/01/01 04:43:30;;;;;;;;;0.80;0.80;;;;;15.38;52.67;99442.81;5035984;28;9502;-60
2023/01/01 04:45:58;;;;;;;;;1.00;0.00;;;;;15.41;52.37;99442.50;5035937;28;8882;-60
2023/01/01 04:48:25;;;;;;;;;1.75;1.75;;;;;15.43;51.97;99437.81;5036526;28;8885;-60
2023/01/01 04:50:53;;;;;;;;;2.25;1.00;;;;;15.42;51.90;99437.00;5035985;28;8851;-60
2023/01/01 04:53:21;;;;;;;;;0.00;0.00;;;;;15.41;51.90;99447.88;5036454;28;8817;-60
2023/01/01 04:55:48;;;;;;;;;1.00;1.00;;;;;15.40;52.17;99451.56;5036511;28;8821;-60
2023/01/01 04:58:16;;;;;;;;;1.00;1.00;;;;;15.38;52.31;99457.09;5036360;28;8837;-59
2023/01/01 05:00:44;;;;;;;;;1.00;1.00;;;;;15.38;52.93;99448.19;5036442;28;8827;-60
2023/01/01 05:03:12;;;;;;;;;0.00;0.00;;;;;15.36;52.86;99455.56;5036203;28;8852;-60
2023/01/01 05:05:40;;;;;;;;;1.60;0.60;;;;;15.35;52.57;99451.22;5036198;28;9580;-60
2023/01/01 05:08:13;;;;;;;;;1.00;1.00;;;;;15.34;52.98;99439.66;5035773;28;8918;-59
2023/01/01 05:10:40;;;;;;;;;0.20;0.20;;;;;15.32;53.17;99446.19;5035930;28;9526;-59
2023/01/01 05:13:08;;;;;;;;;0.00;0.00;;;;;15.29;52.86;99455.38;5035934;28;8844;-60
2023/01/01 05:15:36;;;;;;;;;1.00;1.00;;;;;15.28;52.92;99461.75;5035846;28;8828;-60
2023/01/01 05:18:04;;;;;;;;;1.00;1.00;;;;;15.26;53.24;99450.31;5035688;28;8845;-60
2023/01/01 05:20:31;;;;;;;;;0.60;0.60;;;;;15.26;53.41;99444.13;5035573;28;8829;-60
2023/01/01 05:22:59;;;;;;;;;1.00;1.00;;;;;15.25;53.66;99437.09;5035709;28;8852;-60
2023/01/01 05:25:27;;;;;;;;;0.00;0.00;;;;;15.24;53.40;99454.19;5035760;28;8847;-59
2023/01/01 05:27:55;;;;;;;;;0.00;0.00;;;;;15.20;54.16;99467.09;5035987;28;9620;-60
2023/01/01 05:30:22;;;;;;;;;1.00;0.80;;;;;15.17;53.84;99461.19;5035529;28;8829;-59
2023/01/01 05:32:50;;;;;;;;;1.25;1.25;;;;;15.15;53.63;99457.81;5035579;28;8829;-59
2023/01/01 05:35:18;;;;;;;;;1.00;1.00;;;;;15.15;54.32;99471.22;5035912;28;8844;-60
2023/01/01 05:37:54;;;;;;;;;2.00;1.00;;;;;15.11;54.09;99486.81;5035976;28;8828;-59
2023/01/01 05:40:21;;;;;;;;;0.00;0.00;;;;;15.08;54.32;99476.41;5035477;28;8829;-59
2023/01/01 05:42:49;;;;;;;;;0.00;0.00;;;;;15.04;54.00;99476.91;5035578;28;8817;-60
2023/01/01 05:45:17;;;;;;;;;3.00;3.00;;;;;15.01;54.10;99471.88;5035519;28;8832;-60
2023/01/01 05:47:45;;;;;;;;;0.00;0.00;;;;;15.01;54.75;99487.97;5035893;28;8864;-59
2023/01/01 05:50:13;;;;;;;;;0.25;0.25;;;;;15.02;54.20;99478.91;5035380;28;8841;-60
2023/01/01 05:52:41;;;;;;;;;1.00;0.50;;;;;15.03;54.31;99470.69;5039392;28;8849;-60
2023/01/01 05:55:09;;;;;;;;;2.50;2.00;;;;;15.01;54.52;99471.88;5039694;28;8899;-60
2023/01/01 05:57:37;;;;;;;;;0.50;0.50;;;;;14.98;54.41;99474.84;5039576;28;8836;-60
2023/01/01 06:00:04;;;;;;;;;2.00;1.50;;;;;14.94;55.03;99484.25;5039564;28;8856;-59
2023/01/01 06:02:32;;;;;;;;;1.00;1.00;;;;;14.90;55.13;99494.44;5039688;28;8864;-60
2023/01/01 06:05:00;;;;;;;;;1.00;1.00;;;;;14.92;55.28;99507.66;5039520;28;8879;-60
2023/01/01 06:07:28;;;;;;;;;1.00;1.00;;;;;14.91;54.97;99508.69;5039762;28;9526;-60
2023/01/01 06:09:56;;;;;;;;;1.00;1.00;;;;;14.91;55.20;99508.69;5039502;28;8855;-60
2023/01/01 06:12:23;;;;;;;;;2.50;2.00;;;;;14.92;54.70;99519.25;5038923;28;8828;-60
2023/01/01 06:14:51;;;;;;;;;1.50;1.50;;;;;14.89;55.57;99529.44;5039093;28;8867;-60
2023/01/01 06:17:18;;;;;;;;;0.00;0.00;;;;;14.86;55.28;99529.78;5039025;28;8867;-60
2023/01/01 06:19:47;;;;;;;;;2.50;1.00;;;;;14.86;55.14;99533.28;5039216;28;8817;-60
2023/01/01 06:22:15;;;;;;;;;1.00;1.00;;;;;14.89;55.70;99537.50;5039511;28;8840;-59
2023/01/01 06:24:42;;;;;;;;;1.00;0.50;;;;;14.91;55.21;99555.13;5038803;28;8829;-60
2023/01/01 06:27:10;;;;;;;;;0.00;0.00;;;;;14.93;55.11;99560.28;5038646;28;8833;-60
2023/01/01 06:29:39;;;;;;;;;1.00;1.00;;;;;14.92;55.90;99564.84;5038654;28;8824;-60
2023/01/01 06:32:06;;;;;;;;;0.00;0.00;;;;;14.93;55.10;99574.56;5038786;28;8824;-60
2023/01/01 06:34:34;;;;;;;;;1.00;1.00;;;;;14.88;55.87;99589.44;5038967;28;8824;-60
2023/01/01 06:37:02;;;;;;;;;1.50;1.50;;;;;14.73;56.30;99585.66;5038853;28;8855;-61
2023/01/01 06:39:33;;;;;;;;;1.00;1.00;;;;;14.60;56.23;99590.56;5038840;28;8939;-60
2023/01/01 06:42:01;;;;;;;;;1.00;1.00;;;;;14.46;57.15;99578.59;5038395;28;8817;-60
2023/01/01 06:44:28;;;;;;;;;1.00;0.75;;;;;14.37;57.47;99562.59;5038509;28;8840;-60
2023/01/01 06:46:56;;;;;;;;;2.00;1.00;;;;;14.31;56.88;99568.56;5038771;28;8875;-60
2023/01/01 06:49:24;;;;;;;;;0.50;0.50;;;;;14.28;57.46;99574.25;5038305;28;8844;-60
2023/01/01 06:51:52;;;;;;;;;1.00;1.00;;;;;14.30;57.88;99577.59;5038431;28;8844;-60
2023/01/01 06:54:19;;;;;;;;;2.00;2.00;;;;;14.35;57.64;99578.00;5038291;28;8832;-60
2023/01/01 06:56:47;;;;;;;;;0.50;0.50;;;;;14.41;57.67;99578.19;5038774;28;8901;-60
2023/01/01 06:59:14;;;;;;;;;1.00;1.00;;;;;14.49;57.42;99590.84;5038399;28;9541;-61
2023/01/01 07:01:42;;;;;;;;;1.00;1.00;;;;;14.53;57.51;99602.91;5037538;28;8840;-60
2023/01/01 07:04:11;;;;;;;;;2.00;2.00;;;;;14.56;57.65;99610.66;5037473;28;8829;-60
2023/01/01 07:06:38;;;;;;;;;2.00;2.00;;;;;14.58;57.34;99603.28;5037866;28;8849;-60
2023/01/01 07:09:06;;;;;;;;;0.75;0.00;;;;;14.59;57.60;99613.00;5037703;28;8855;-60
2023/01/01 07:11:34;;;;;;;;;4.00;1.00;;;;;14.61;58.01;99619.91;5037566;28;8825;-59
2023/01/01 07:14:02;;;;;;;;;1.00;1.00;;;;;14.62;57.68;99626.09;5037649;28;8828;-60
2023/01/01 07:16:30;;;;;;;;;1.00;1.00;;;;;14.62;57.92;99631.44;5037688;28;8844;-60
2023/01/01 07:18:57;;;;;;;;;1.50;1.50;;;;;14.62;57.84;99639.50;5038336;28;8849;-60
2023/01/01 07:21:25;;;;;;;;;0.00;0.00;;;;;14.63;57.91;99630.47;5038044;28;8848;-60
2023/01/01 07:23:56;;;;;;;;;0.00;0.00;;;;;14.63;58.30;99633.97;5038009;28;8817;-60
2023/01/01 07:26:23;;;;;;;;;3.00;3.00;;;;;14.64;58.38;99637.53;5038005;28;8817;-60
2023/01/01 07:28:51;;;;;;;;;1.00;1.00;;;;;14.63;58.69;99638.53;5038161;28;8836;-60
2023/01/01 07:31:19;;;;;;;;;2.50;1.00;;;;;14.65;58.12;99649.91;5037648;28;8839;-60
2023/01/01 07:33:46;;;;;;;;;0.00;0.00;;;;;14.67;58.18;99635.38;5037413;28;8829;-60
2023/01/01 07:36:15;;;;;;;;;0.25;0.00;;;;;14.68;58.06;99636.19;5037865;28;8935;-60
2023/01/01 07:38:42;;;;;;;;;1.00;1.00;;;;;14.68;58.17;99641.56;5037971;28;8821;-60
2023/01/01 07:41:10;;;;;;;;;1.00;1.00;;;;;14.67;58.39;99640.72;5037898;28;8839;-60
2023/01/01 07:43:38;;;;;;;;;0.00;0.00;;;;;14.69;58.67;99659.31;5037311;28;8868;-60
2023/01/01 07:46:05;;;;;;;;;1.00;1.00;;;;;14.71;58.70;99668.06;5037129;28;8817;-60
2023/01/01 07:48:33;;;;;;;;;0.75;0.50;;;;;14.73;58.15;99666.88;5037084;28;8979;-59
2023/01/01 07:51:06;;;;;;;;;0.75;0.50;;;;;14.73;58.29;99660.72;5037355;28;9526;-60
2023/01/01 07:53:34;;;;;;;;;3.00;3.00;;;;;14.65;58.83;99671.38;5036529;28;8844;-60
2023/01/01 07:56:02;;;;;;;;;0.00;0.00;;;;;14.59;58.50;99663.94;5036574;28;9529;-60
2023/01/01 07:58:30;;;;;;;;;3.00;1.00;;;;;14.58;58.78;99667.63;5036533;28;8836;-60
2023/01/01 08:00:57;;;;;;;;;0.00;0.00;;;;;14.58;58.96;99683.69;5036720;28;8836;-60
2023/01/01 08:03:25;;;;;;;;;2.50;1.50;;;;;14.61;58.68;99683.38;5036682;28;8841;-60
2023/01/01 08:05:53;;;;;;;;;1.00;1.00;;;;;14.60;59.06;99677.19;5036582;28;8967;-60
2023/01/01 08:08:20;;;;;;;;;3.50;3.00;;;;;14.61;59.22;99680.69;5036960;28;8836;-59
2023/01/01 08:10:48;;;;;;;;;2.50;2.00;;;;;14.62;59.72;99685.06;5037404;28;8840;-59
2023/01/01 08:13:16;;;;;;;;;1.00;1.00;;;;;14.64;59.23;99688.44;5035945;28;8843;-60
2023/01/01 08:15:44;;;;;;;;;1.50;1.50;;;;;14.64;59.26;99701.84;5036920;28;8832;-60
2023/01/01 08:18:11;;;;;;;;;1.00;1.00;;;;;14.57;59.34;99709.63;5037080;28;8943;-60
2023/01/01 08:20:39;;;;;;;;;0.75;0.75;;;;;14.42;59.98;99723.72;5037211;28;8817;-59
2023/01/01 08:23:07;;;;;;;;;2.00;1.00;;;;;14.26;60.37;99715.53;5036812;28;8820;-60
2023/01/01 08:25:35;;;;;;;;;3.00;1.00;;;;;14.09;61.08;99706.41;5036525;28;8836;-60
2023/01/01 08:28:02;;;;;;;;;1.00;1.00;;;;;13.97;61.09;99712.97;5036726;28;8835;-59
2023/01/01 08:30:30;;;;;;;;;1.00;1.00;;;;;13.94;61.53;99732.00;5036484;28;8820;-59
2023/01/01 08:32:57;;;;;;;;;0.00;0.00;;;;;14.01;61.36;99711.69;5036100;28;8863;-59
2023/01/01 08:35:25;;;;;;;;;1.00;1.00;;;;;14.04;61.60;99710.53;5036320;28;8844;-60
2023/01/01 08:37:53;;;;;;;;;1.00;1.00;;;;;14.01;61.64;99713.50;5036559;28;8840;-58
2023/01/01 08:40:21;;;;;;;;;1.00;1.00;;;;;14.01;61.71;99721.53;5036490;28;8840;-59
2023/01/01 08:42:49;;;;;;;;;0.00;0.00;;;;;14.07;62.07;99731.66;5036497;28;9669;-59
2023/01/01 08:45:16;;;;;;;;;1.00;1.00;;;;;14.15;61.68;99718.34;5036608;28;9495;-59
2023/01/01 08:47:44;;;;;;;;;1.00;0.25;;;;;14.24;61.29;99717.47;5036844;28;8844;-59
2023/01/01 08:50:12;;;;;;;;;1.00;1.00;;;;;14.32;61.32;99712.22;5036158;28;8848;-60
2023/01/01 08:52:40;;;;;;;;;1.00;1.00;;;;;14.40;61.56;99731.06;5036418;28;8816;-57
2023/01/01 08:55:07;;;;;;;;;0.50;0.50;;;;;14.45;61.89;99726.09;5036663;28;8845;-60
2023/01/01 08:57:35;;;;;;;;;3.00;2.00;;;;;14.47;61.06;99724.09;5036421;28;8836;-57
2023/01/01 09:00:03;;;;;;;;;1.00;1.00;;;;;14.49;60.92;99722.94;5036865;28;8820;-60
2023/01/01 09:02:31;;;;;;;;;2.00;1.00;;;;;14.52;60.93;99740.56;5036640;28;8844;-60
2023/01/01 09:04:59;;;;;;;;;1.00;1.00;;;;;14.56;61.19;99750.00;5036066;28;8966;-60
2023/01/01 09:07:26;;;;;;;;;2.00;1.00;;;;;14.58;61.14;99756.06;5036235;28;9529;-60
2023/01/01 09:09:54;;;;;;;;;0.25;0.25;;;;;14.60;61.03;99759.41;5035805;28;8841;-60
2023/01/01 09:12:21;;;;;;;;;1.50;1.00;;;;;14.63;61.13;99756.44;5036227;28;8841;-60
2023/01/01 09:14:50;;;;;;;;;2.50;2.00;;;;;14.67;61.35;99769.38;5035849;28;8828;-60
2023/01/01 09:17:17;;;;;;;;;0.75;0.75;;;;;14.69;61.21;99788.84;5035939;28;9510;-60
2023/01/01 09:19:45;;;;;;;;;0.00;0.00;;;;;14.73;61.33;99773.28;5035841;28;8832;-60
2023/01/01 09:22:12;;;;;;;;;3.50;3.50;;;;;14.78;60.55;99779.03;5035702;28;8849;-60
2023/01/01 09:24:40;;;;;;;;;1.00;1.00;;;;;14.80;61.06;99779.72;5035079;28;8886;-60
2023/01/01 09:27:08;;;;;;;;;2.50;0.75;;;;;14.81;60.94;99786.78;5035649;28;8863;-60
2023/01/01 09:29:36;;;;;;;;;0.25;0.25;;;;;14.84;61.30;99800.72;5034759;28;8845;-58
2023/01/01 09:32:04;;;;;;;;;3.00;1.00;;;;;14.86;60.65;99800.56;5035587;28;8831;-60
2023/01/01 09:34:32;;;;;;;;;0.50;0.50;;;;;14.89;60.74;99810.97;5035465;28;8856;-60
2023/01/01 09:36:59;;;;;;;;;1.00;1.00;;;;;14.93;61.05;99809.66;5035723;28;8825;-60
2023/01/01 09:39:29;;;;;;;;;1.00;1.00;;;;;14.95;60.55;99805.03;5035298;28;8851;-60
2023/01/01 09:41:56;;;;;;;;;1.00;1.00;;;;;14.97;60.60;99801.19;5035749;28;8924;-59
2023/01/01 09:44:24;;;;;;;;;1.50;1.50;;;;;14.99;60.70;99807.25;5035758;28;8875;-60
2023/01/01 09:46:52;;;;;;;;;1.00;1.00;;;;;15.02;60.92;99822.19;5035325;28;8907;-60
2023/01/01 09:49:20;;;;;;;;;1.50;0.25;;;;;15.05;60.49;99811.13;5035058;28;8833;-60
2023/01/01 09:51:48;;;;;;;;;2.50;2.50;;;;;15.08;60.80;99808.13;5035108;28;8848;-60
2023/01/01 09:54:24;;;;;;;;;1.00;1.00;;;;;15.11;60.32;99807.84;5033688;28;9584;-60
2023/01/01 09:56:51;;;;;;;;;0.25;0.00;;;;;15.13;60.33;99814.75;5033736;28;8829;-60
2023/01/01 09:59:19;;;;;;;;;0.25;0.25;;;;;15.15;60.72;99804.69;5033397;28;8829;-60
2023/01/01 10:01:47;;;;;;;;;1.00;1.00;;;;;15.17;60.63;99807.25;5034235;28;8856;-60
2023/01/01 10:04:15;;;;;;;;;0.25;0.25;;;;;15.21;60.66;99805.91;5034160;28;8829;-60
2023/01/01 10:06:43;;;;;;;;;1.00;1.00;;;;;15.23;60.22;99826.22;5034543;28;8970;-60
2023/01/01 10:09:10;;;;;;;;;0.00;0.00;;;;;15.26;60.69;99817.88;5035363;28;8828;-60
2023/01/01 10:11:39;;;;;;;;;0.25;0.25;;;;;15.31;60.17;99818.28;5035283;28;8839;-58
2023/01/01 10:14:07;;;;;;;;;2.50;1.00;;;;;15.37;60.12;99828.41;5035302;28;9514;-60
2023/01/01 10:16:35;;;;;;;;;2.00;2.00;;;;;15.41;59.90;99824.41;5035132;28;8835;-60
2023/01/01 10:19:03;;;;;;;;;3.40;0.60;;;;;15.42;60.23;99826.09;5035018;28;8902;-60
2023/01/01 10:21:31;;;;;;;;;3.00;2.60;;;;;15.42;60.18;99827.94;5035177;28;8952;-58
2023/01/01 10:23:59;;;;;;;;;0.80;0.80;;;;;15.41;60.28;99834.31;5035018;28;8836;-60
2023/01/01 10:26:28;;;;;;;;;1.00;0.00;;;;;15.41;60.70;99840.50;5034852;28;8841;-59
2023/01/01 10:28:56;;;;;;;;;0.00;0.00;;;;;15.40;59.92;99838.00;5034930;28;8828;-60
2023/01/01 10:31:24;;;;;;;;;1.00;1.00;;;;;15.39;60.74;99836.31;5035274;28;8974;-60
2023/01/01 10:33:52;;;;;;;;;3.25;1.50;;;;;15.38;60.72;99839.97;5035101;28;8821;-60
2023/01/01 10:36:19;;;;;;;;;1.50;1.00;;;;;15.37;60.54;99822.19;5035261;28;8852;-60
2023/01/01 10:38:47;;;;;;;;;0.40;0.40;;;;;15.36;60.55;99831.22;5038623;28;9498;-60
2023/01/01 10:41:16;;;;;;;;;2.60;2.60;;;;;15.33;60.62;99842.28;5038155;28;8821;-60
2023/01/01 10:43:46;;;;;;;;;0.40;0.20;;;;;15.31;60.91;99834.38;5037737;28;8832;-61
2023/01/01 10:46:14;;;;;;;;;1.00;1.00;;;;;15.31;61.37;99829.03;5037923;28;8840;-60
2023/01/01 10:48:42;;;;;;;;;0.00;0.00;;;;;15.32;61.05;99835.25;5038680;28;8921;-60
2023/01/01 10:51:10;;;;;;;;;0.60;0.60;;;;;15.31;61.05;99826.34;5037954;28;8843;-59
2023/01/01 10:53:38;;;;;;;;;0.80;0.80;;;;;15.32;61.14;99827.19;5037953;28;8852;-60
2023/01/01 10:56:06;;;;;;;;;0.50;0.50;;;;;15.33;60.76;99826.19;5038557;28;8828;-60
2023/01/01 10:58:34;;;;;;;;;1.00;1.00;;;;;15.33;60.85;99815.47;5038585;28;8833;-60
2023/01/01 11:01:02;;;;;;;;;1.00;1.00;;;;;15.33;61.21;99827.00;5038717;28;8836;-59
2023/01/01 11:03:30;;;;;;;;;2.50;2.00;;;;;15.32;61.02;99828.00;5038407;28;8844;-60
2023/01/01 11:05:58;;;;;;;;;0.25;0.25;;;;;15.31;61.16;99830.84;5036601;28;8840;-60
2023/01/01 11:08:26;;;;;;;;;1.00;1.00;;;;;15.28;61.07;99823.09;5038273;28;8845;-60
2023/01/01 11:10:54;;;;;;;;;0.25;0.25;;;;;15.25;61.29;99810.81;5038146;28;8906;-60
2023/01/01 11:13:22;;;;;;;;;0.00;0.00;;;;;15.21;61.73;99801.41;5037701;28;8872;-59
2023/01/01 11:15:49;;;;;;;;;0.00;0.00;;;;;15.19;61.95;99813.28;5036706;28;8864;-58
2023/01/01 11:18:17;;;;;;;;;0.75;0.00;;;;;15.18;61.80;99819.66;5038126;28;8859;-60
2023/01/01 11:20:45;;;;;;;;;0.00;0.00;;;;;15.17;61.75;99815.28;5037204;28;9507;-60
2023/01/01 11:23:13;;;;;;;;;3.00;1.00;;;;;15.14;61.71;99811.06;5037167;28;8829;-60
2023/01/01 11:25:41;;;;;;;;;1.00;1.00;;;;;15.13;61.92;99813.91;5036494;28;9549;-60
2023/01/01 11:28:09;;;;;;;;;1.00;1.00;;;;;15.10;61.92;99814.22;5037287;28;8837;-60
2023/01/01 11:30:37;;;;;;;;;0.00;0.00;;;;;15.08;62.03;99818.88;5036858;28;8837;-60
2023/01/01 11:33:05;;;;;;;;;1.00;1.00;;;;;15.08;62.04;99821.53;5035740;28;9528;-60
2023/01/01 11:35:32;;;;;;;;;1.00;0.75;;;;;15.08;62.21;99840.31;5034529;28;8837;-59
2023/01/01 11:38:01;;;;;;;;;0.25;0.25;;;;;15.08;62.06;99845.69;5035105;28;8983;-61
2023/01/01 11:40:29;;;;;;;;;0.50;0.50;;;;;15.08;62.10;99851.91;5035001;28;8848;-60
2023/01/01 11:42:57;;;;;;;;;1.00;0.50;;;;;15.08;62.37;99859.09;5034377;28;8836;-60
2023/01/01 11:45:25;;;;;;;;;1.00;1.00;;;;;15.07;62.04;99860.09;5034036;28;8836;-59
2023/01/01 11:47:53;;;;;;;;;1.00;1.00;;;;;15.05;62.19;99859.41;5034776;28;8875;-59
2023/01/01 11:50:21;;;;;;;;;0.00;0.00;;;;;15.05;62.52;99854.06;5035430;28;8857;-60
2023/01/01 11:52:49;;;;;;;;;0.00;0.00;;;;;15.06;62.57;99856.59;5036008;28;8840;-60